sensor_id;sensor_type;location;lat;lon;timestamp;pressure;altitude;pressure_sealevel;temperature;humidity
80116;BME280;69423;47.608;19.366;2023-05-29T00:00:16;98940.59;;;13.86;77.62
80116;BME280;69423;47.608;19.366;2023-05-29T00:00:49;98938.31;;;13.83;78.29
80116;BME280;69423;47.608;19.366;2023-05-29T00:01:20;98938.50;;;13.81;78.43
80116;BME280;69423;47.608;19.366;2023-05-29T00:01:51;98936.06;;;13.80;78.56
80116;BME280;69423;47.608;19.366;2023-05-29T00:02:22;98934.63;;;13.84;78.53
80116;BME280;69423;47.608;19.366;2023-05-29T00:02:53;98930.69;;;13.86;77.90
80116;BME280;69423;47.608;19.366;2023-05-29T00:03:24;98933.19;;;13.88;78.26
80116;BME280;69423;47.608;19.366;2023-05-29T00:03:55;98933.38;;;13.86;77.87
80116;BME280;69423;47.608;19.366;2023-05-29T00:04:26;98935.63;;;13.83;78.32
80116;BME280;69423;47.608;19.366;2023-05-29T00:04:56;98932.34;;;13.81;77.73
80116;BME280;69423;47.608;19.366;2023-05-29T00:05:27;98935.44;;;13.84;77.73
80116;BME280;69423;47.608;19.366;2023-05-29T00:05:58;98935.81;;;13.81;78.83
80116;BME280;69423;47.608;19.366;2023-05-29T00:06:31;98927.78;;;13.81;78.88
80116;BME280;69423;47.608;19.366;2023-05-29T00:07:02;98935.22;;;13.79;78.01
80116;BME280;69423;47.608;19.366;2023-05-29T00:07:33;98934.19;;;13.80;79.00
80116;BME280;69423;47.608;19.366;2023-05-29T00:08:04;98931.72;;;13.79;78.99
80116;BME280;69423;47.608;19.366;2023-05-29T00:08:36;98935.22;;;13.79;78.58
80116;BME280;69423;47.608;19.366;2023-05-29T00:09:07;98933.56;;;13.78;78.51
80116;BME280;69423;47.608;19.366;2023-05-29T00:09:38;98938.31;;;13.76;78.56
80116;BME280;69423;47.608;19.366;2023-05-29T00:10:10;98943.25;;;13.72;78.35
80116;BME280;69423;47.608;19.366;2023-05-29T00:10:41;98933.13;;;13.68;78.09
80116;BME280;69423;47.608;19.366;2023-05-29T00:11:13;98930.25;;;13.63;78.24
80116;BME280;69423;47.608;19.366;2023-05-29T00:11:43;98936.25;;;13.65;78.77
80116;BME280;69423;47.608;19.366;2023-05-29T00:12:15;98936.00;;;13.66;79.28
80116;BME280;69423;47.608;19.366;2023-05-29T00:12:46;98934.19;;;13.67;78.66
80116;BME280;69423;47.608;19.366;2023-05-29T00:13:17;98929.84;;;13.66;79.43
80116;BME280;69423;47.608;19.366;2023-05-29T00:13:47;98926.97;;;13.67;79.19
80116;BME280;69423;47.608;19.366;2023-05-29T00:14:19;98932.53;;;13.66;78.93
80116;BME280;69423;47.608;19.366;2023-05-29T00:14:50;98931.50;;;13.67;78.71
80116;BME280;69423;47.608;19.366;2023-05-29T00:15:21;98936.88;;;13.67;78.92
80116;BME280;69423;47.608;19.366;2023-05-29T00:15:52;98936.88;;;13.67;78.71
80116;BME280;69423;47.608;19.366;2023-05-29T00:16:23;98931.50;;;13.67;78.74
80116;BME280;69423;47.608;19.366;2023-05-29T00:16:54;98935.19;;;13.66;79.07
80116;BME280;69423;47.608;19.366;2023-05-29T00:17:25;98936.00;;;13.66;79.17
80116;BME280;69423;47.608;19.366;2023-05-29T00:17:56;98929.03;;;13.65;78.60
80116;BME280;69423;47.608;19.366;2023-05-29T00:18:27;98934.38;;;13.65;78.68
80116;BME280;69423;47.608;19.366;2023-05-29T00:18:58;98935.63;;;13.63;78.96
80116;BME280;69423;47.608;19.366;2023-05-29T00:19:29;98933.94;;;13.62;79.30
80116;BME280;69423;47.608;19.366;2023-05-29T00:20:00;98939.31;;;13.62;79.29
80116;BME280;69423;47.608;19.366;2023-05-29T00:20:39;98925.28;;;13.60;79.63
80116;BME280;69423;47.608;19.366;2023-05-29T00:21:13;98925.72;;;13.56;78.94
80116;BME280;69423;47.608;19.366;2023-05-29T00:21:45;98933.13;;;13.54;78.63
80116;BME280;69423;47.608;19.366;2023-05-29T00:22:18;98928.59;;;13.55;78.63
80116;BME280;69423;47.608;19.366;2023-05-29T00:22:49;98936.00;;;13.53;79.17
80116;BME280;69423;47.608;19.366;2023-05-29T00:23:21;98937.63;;;13.47;79.67
80116;BME280;69423;47.608;19.366;2023-05-29T00:23:52;98935.75;;;13.41;79.35
80116;BME280;69423;47.608;19.366;2023-05-29T00:24:23;98930.19;;;13.36;79.55
80116;BME280;69423;47.608;19.366;2023-05-29T00:24:54;98934.72;;;13.35;79.40
80116;BME280;69423;47.608;19.366;2023-05-29T00:25:25;98935.53;;;13.36;79.62
80116;BME280;69423;47.608;19.366;2023-05-29T00:25:55;98930.19;;;13.36;79.12
80116;BME280;69423;47.608;19.366;2023-05-29T00:26:26;98931.81;;;13.37;78.66
80116;BME280;69423;47.608;19.366;2023-05-29T00:26:57;98934.50;;;13.37;79.50
80116;BME280;69423;47.608;19.366;2023-05-29T00:27:28;98935.13;;;13.39;79.39
80116;BME280;69423;47.608;19.366;2023-05-29T00:27:59;98928.56;;;13.42;79.28
80116;BME280;69423;47.608;19.366;2023-05-29T00:28:30;98932.88;;;13.43;79.97
80116;BME280;69423;47.608;19.366;2023-05-29T00:29:00;98932.69;;;13.44;80.46
80116;BME280;69423;47.608;19.366;2023-05-29T00:29:31;98926.72;;;13.42;80.09
80116;BME280;69423;47.608;19.366;2023-05-29T00:30:03;98930.00;;;13.44;80.22
80116;BME280;69423;47.608;19.366;2023-05-29T00:30:34;98936.00;;;13.46;79.92
80116;BME280;69423;47.608;19.366;2023-05-29T00:31:05;98930.00;;;13.44;80.23
80116;BME280;69423;47.608;19.366;2023-05-29T00:31:37;98931.03;;;13.43;79.33
80116;BME280;69423;47.608;19.366;2023-05-29T00:32:08;98928.97;;;13.45;80.44
80116;BME280;69423;47.608;19.366;2023-05-29T00:32:39;98934.94;;;13.47;80.18
80116;BME280;69423;47.608;19.366;2023-05-29T00:33:10;98936.63;;;13.48;80.73
80116;BME280;69423;47.608;19.366;2023-05-29T00:33:40;98937.44;;;13.49;80.52
80116;BME280;69423;47.608;19.366;2023-05-29T00:34:11;98930.22;;;13.49;80.39
80116;BME280;69423;47.608;19.366;2023-05-29T00:34:42;98930.03;;;13.51;80.36
80116;BME280;69423;47.608;19.366;2023-05-29T00:35:13;98931.66;;;13.52;80.44
80116;BME280;69423;47.608;19.366;2023-05-29T00:35:44;98933.50;;;13.51;80.67
80116;BME280;69423;47.608;19.366;2023-05-29T00:36:15;98928.34;;;13.50;80.49
80116;BME280;69423;47.608;19.366;2023-05-29T00:36:47;98931.03;;;13.50;80.59
80116;BME280;69423;47.608;19.366;2023-05-29T00:37:18;98927.34;;;13.51;80.81
80116;BME280;69423;47.608;19.366;2023-05-29T00:37:52;98926.53;;;13.50;80.16
80116;BME280;69423;47.608;19.366;2023-05-29T00:38:23;98939.91;;;13.50;80.54
80116;BME280;69423;47.608;19.366;2023-05-29T00:38:53;98925.69;;;13.50;80.51
80116;BME280;69423;47.608;19.366;2023-05-29T00:39:24;98934.75;;;13.49;80.61
80116;BME280;69423;47.608;19.366;2023-05-29T00:39:55;98932.69;;;13.44;80.51
80116;BME280;69423;47.608;19.366;2023-05-29T00:40:27;98936.38;;;13.43;80.09
80116;BME280;69423;47.608;19.366;2023-05-29T00:40:57;98933.31;;;13.46;80.60
80116;BME280;69423;47.608;19.366;2023-05-29T00:41:29;98929.19;;;13.44;80.40
80116;BME280;69423;47.608;19.366;2023-05-29T00:42:00;98933.50;;;13.45;80.26
80116;BME280;69423;47.608;19.366;2023-05-29T00:42:31;98937.63;;;13.47;80.32
80116;BME280;69423;47.608;19.366;2023-05-29T00:43:02;98930.81;;;13.45;80.46
80116;BME280;69423;47.608;19.366;2023-05-29T00:43:33;98927.34;;;13.44;81.22
80116;BME280;69423;47.608;19.366;2023-05-29T00:44:04;98925.28;;;13.46;80.46
80116;BME280;69423;47.608;19.366;2023-05-29T00:44:34;98936.00;;;13.46;80.82
80116;BME280;69423;47.608;19.366;2023-05-29T00:45:07;98929.41;;;13.49;81.26
80116;BME280;69423;47.608;19.366;2023-05-29T00:45:38;98926.91;;;13.47;80.74
80116;BME280;69423;47.608;19.366;2023-05-29T00:46:13;98922.78;;;13.45;80.50
80116;BME280;69423;47.608;19.366;2023-05-29T00:46:49;98930.63;;;13.46;80.93
80116;BME280;69423;47.608;19.366;2023-05-29T00:47:21;98924.03;;;13.42;80.70
80116;BME280;69423;47.608;19.366;2023-05-29T00:47:52;98933.94;;;13.48;81.11
80116;BME280;69423;47.608;19.366;2023-05-29T00:48:23;98923.22;;;13.48;80.40
80116;BME280;69423;47.608;19.366;2023-05-29T00:48:54;98932.88;;;13.49;80.52
80116;BME280;69423;47.608;19.366;2023-05-29T00:49:26;98930.22;;;13.49;81.02
80116;BME280;69423;47.608;19.366;2023-05-29T00:49:57;98926.53;;;13.50;81.08
80116;BME280;69423;47.608;19.366;2023-05-29T00:50:29;98919.50;;;13.49;80.59
80116;BME280;69423;47.608;19.366;2023-05-29T00:51:00;98938.03;;;13.44;80.21
80116;BME280;69423;47.608;19.366;2023-05-29T00:51:32;98936.56;;;13.35;80.13
80116;BME280;69423;47.608;19.366;2023-05-29T00:52:05;98933.00;;;13.28;80.19
80116;BME280;69423;47.608;19.366;2023-05-29T00:52:44;98930.19;;;13.29;79.55
80116;BME280;69423;47.608;19.366;2023-05-29T00:53:16;98920.09;;;13.38;78.82
80116;BME280;69423;47.608;19.366;2023-05-29T00:53:48;98931.00;;;13.36;79.05
80116;BME280;69423;47.608;19.366;2023-05-29T00:54:26;98933.47;;;13.31;79.35
80116;BME280;69423;47.608;19.366;2023-05-29T00:54:59;98930.19;;;13.36;79.75
80116;BME280;69423;47.608;19.366;2023-05-29T00:55:32;98934.31;;;13.39;79.53
80116;BME280;69423;47.608;19.366;2023-05-29T00:56:03;98932.25;;;13.41;79.55
80116;BME280;69423;47.608;19.366;2023-05-29T00:56:35;98936.38;;;13.36;79.69
80116;BME280;69423;47.608;19.366;2023-05-29T00:57:06;98931.81;;;13.37;79.69
80116;BME280;69423;47.608;19.366;2023-05-29T00:57:37;98932.44;;;13.39;80.10
80116;BME280;69423;47.608;19.366;2023-05-29T00:58:09;98928.13;;;13.38;80.14
80116;BME280;69423;47.608;19.366;2023-05-29T00:58:41;98930.00;;;13.38;79.51
80116;BME280;69423;47.608;19.366;2023-05-29T00:59:13;98933.50;;;13.38;79.52
80116;BME280;69423;47.608;19.366;2023-05-29T00:59:45;98935.13;;;13.32;79.15
80116;BME280;69423;47.608;19.366;2023-05-29T01:00:18;98930.94;;;13.23;79.24
80116;BME280;69423;47.608;19.366;2023-05-29T01:00:49;98917.19;;;13.33;79.22
80116;BME280;69423;47.608;19.366;2023-05-29T01:01:21;98927.28;;;13.31;78.66
80116;BME280;69423;47.608;19.366;2023-05-29T01:01:53;98926.06;;;13.33;78.91
80116;BME280;69423;47.608;19.366;2023-05-29T01:02:24;98925.22;;;13.33;80.00
80116;BME280;69423;47.608;19.366;2023-05-29T01:02:56;98921.34;;;13.35;79.96
80116;BME280;69423;47.608;19.366;2023-05-29T01:03:29;98924.66;;;13.38;79.04
80116;BME280;69423;47.608;19.366;2023-05-29T01:04:00;98933.06;;;13.34;79.24
80116;BME280;69423;47.608;19.366;2023-05-29T01:04:34;98931.16;;;13.28;79.31
80116;BME280;69423;47.608;19.366;2023-05-29T01:05:05;98924.41;;;13.32;79.35
80116;BME280;69423;47.608;19.366;2023-05-29T01:05:36;98917.81;;;13.35;79.54
80116;BME280;69423;47.608;19.366;2023-05-29T01:06:07;98923.16;;;13.35;79.62
80116;BME280;69423;47.608;19.366;2023-05-29T01:06:38;98914.75;;;13.38;79.21
80116;BME280;69423;47.608;19.366;2023-05-29T01:07:10;98911.44;;;13.36;79.11
80116;BME280;69423;47.608;19.366;2023-05-29T01:07:42;98915.38;;;13.40;79.70
80116;BME280;69423;47.608;19.366;2023-05-29T01:08:13;98912.50;;;13.42;79.55
80116;BME280;69423;47.608;19.366;2023-05-29T01:08:44;98925.66;;;13.43;79.26
80116;BME280;69423;47.608;19.366;2023-05-29T01:09:15;98915.81;;;13.44;78.96
80116;BME280;69423;47.608;19.366;2023-05-29T01:09:47;98914.75;;;13.45;79.15
80116;BME280;69423;47.608;19.366;2023-05-29T01:10:18;98921.75;;;13.46;79.00
80116;BME280;69423;47.608;19.366;2023-05-29T01:10:53;98920.31;;;13.43;78.78
80116;BME280;69423;47.608;19.366;2023-05-29T01:11:40;98922.34;;;13.41;79.13
80116;BME280;69423;47.608;19.366;2023-05-29T01:12:29;98922.97;;;13.36;79.43
80116;BME280;69423;47.608;19.366;2023-05-29T01:13:11;98918.84;;;13.34;79.25
80116;BME280;69423;47.608;19.366;2023-05-29T01:13:45;98931.00;;;13.30;79.47
80116;BME280;69423;47.608;19.366;2023-05-29T01:14:25;98921.53;;;13.34;79.16
80116;BME280;69423;47.608;19.366;2023-05-29T01:15:02;98920.50;;;13.35;79.04
80116;BME280;69423;47.608;19.366;2023-05-29T01:18:56;98915.38;;;13.40;79.12
80116;BME280;69423;47.608;19.366;2023-05-29T01:22:00;98915.81;;;13.50;79.33
80116;BME280;69423;47.608;19.366;2023-05-29T01:22:54;98917.25;;;13.53;79.71
80116;BME280;69423;47.608;19.366;2023-05-29T01:23:52;98916.00;;;13.55;79.27
80116;BME280;69423;47.608;19.366;2023-05-29T01:25:01;98917.06;;;13.61;79.69
80116;BME280;69423;47.608;19.366;2023-05-29T01:26:50;98918.72;;;13.69;78.84
80116;BME280;69423;47.608;19.366;2023-05-29T01:27:24;98914.81;;;13.71;79.25
80116;BME280;69423;47.608;19.366;2023-05-29T01:27:59;98905.53;;;13.74;78.87
80116;BME280;69423;47.608;19.366;2023-05-29T01:28:42;98912.94;;;13.72;78.98
80116;BME280;69423;47.608;19.366;2023-05-29T01:29:18;98910.69;;;13.69;79.13
80116;BME280;69423;47.608;19.366;2023-05-29T01:29:53;98915.81;;;13.64;79.12
80116;BME280;69423;47.608;19.366;2023-05-29T01:30:28;98909.44;;;13.65;79.13
80116;BME280;69423;47.608;19.366;2023-05-29T01:31:00;98908.41;;;13.66;79.55
80116;BME280;69423;47.608;19.366;2023-05-29T01:31:35;98905.72;;;13.66;79.41
80116;BME280;69423;47.608;19.366;2023-05-29T01:32:07;98906.53;;;13.66;79.35
80116;BME280;69423;47.608;19.366;2023-05-29T01:32:39;98899.97;;;13.69;79.41
80116;BME280;69423;47.608;19.366;2023-05-29T01:33:10;98903.03;;;13.66;79.55
80116;BME280;69423;47.608;19.366;2023-05-29T01:33:42;98906.53;;;13.66;80.43
80116;BME280;69423;47.608;19.366;2023-05-29T01:34:13;98902.03;;;13.67;79.95
80116;BME280;69423;47.608;19.366;2023-05-29T01:34:43;98907.59;;;13.65;79.66
80116;BME280;69423;47.608;19.366;2023-05-29T01:35:14;98906.97;;;13.70;78.85
80116;BME280;69423;47.608;19.366;2023-05-29T01:35:45;98905.09;;;13.70;78.57
80116;BME280;69423;47.608;19.366;2023-05-29T01:36:16;98906.97;;;13.70;79.00
80116;BME280;69423;47.608;19.366;2023-05-29T01:36:47;98913.38;;;13.69;78.95
80116;BME280;69423;47.608;19.366;2023-05-29T01:37:18;98906.34;;;13.68;79.00
80116;BME280;69423;47.608;19.366;2023-05-29T01:37:49;98896.69;;;13.67;78.57
80116;BME280;69423;47.608;19.366;2023-05-29T01:38:19;98903.03;;;13.66;79.46
80116;BME280;69423;47.608;19.366;2023-05-29T01:38:51;98905.53;;;13.67;79.33
80116;BME280;69423;47.608;19.366;2023-05-29T01:39:24;98904.91;;;13.65;79.74
80116;BME280;69423;47.608;19.366;2023-05-29T01:39:56;98904.72;;;13.67;79.85
80116;BME280;69423;47.608;19.366;2023-05-29T01:40:26;98908.22;;;13.67;79.59
80116;BME280;69423;47.608;19.366;2023-05-29T01:40:57;98902.22;;;13.65;79.47
80116;BME280;69423;47.608;19.366;2023-05-29T01:41:30;98911.72;;;13.68;79.47
80116;BME280;69423;47.608;19.366;2023-05-29T01:42:03;98906.53;;;13.66;79.02
80116;BME280;69423;47.608;19.366;2023-05-29T01:42:34;98908.41;;;13.66;78.47
80116;BME280;69423;47.608;19.366;2023-05-29T01:43:05;98908.59;;;13.64;78.74
80116;BME280;69423;47.608;19.366;2023-05-29T01:43:37;98902.22;;;13.65;79.71
80116;BME280;69423;47.608;19.366;2023-05-29T01:44:09;98905.72;;;13.66;79.71
80116;BME280;69423;47.608;19.366;2023-05-29T01:44:42;98903.66;;;13.68;78.82
80116;BME280;69423;47.608;19.366;2023-05-29T01:45:13;98907.16;;;13.68;78.60
80116;BME280;69423;47.608;19.366;2023-05-29T01:45:45;98903.66;;;13.68;79.32
80116;BME280;69423;47.608;19.366;2023-05-29T01:46:17;98909.84;;;13.68;79.58
80116;BME280;69423;47.608;19.366;2023-05-29T01:46:49;98898.94;;;13.70;78.76
80116;BME280;69423;47.608;19.366;2023-05-29T01:47:20;98902.22;;;13.72;79.74
80116;BME280;69423;47.608;19.366;2023-05-29T01:47:51;98904.28;;;13.70;79.84
80116;BME280;69423;47.608;19.366;2023-05-29T01:48:23;98904.47;;;13.68;79.24
80116;BME280;69423;47.608;19.366;2023-05-29T01:48:54;98905.53;;;13.67;78.54
80116;BME280;69423;47.608;19.366;2023-05-29T01:49:26;98906.34;;;13.68;79.21
80116;BME280;69423;47.608;19.366;2023-05-29T01:49:59;98899.97;;;13.69;79.29
80116;BME280;69423;47.608;19.366;2023-05-29T01:50:31;98902.66;;;13.69;79.90
80116;BME280;69423;47.608;19.366;2023-05-29T01:51:02;98901.41;;;13.65;79.17
80116;BME280;69423;47.608;19.366;2023-05-29T01:51:33;98903.88;;;13.66;78.63
80116;BME280;69423;47.608;19.366;2023-05-29T01:52:06;98899.34;;;13.67;78.15
80116;BME280;69423;47.608;19.366;2023-05-29T01:52:37;98900.16;;;13.67;78.14
80116;BME280;69423;47.608;19.366;2023-05-29T01:53:08;98902.66;;;13.69;77.45
80116;BME280;69423;47.608;19.366;2023-05-29T01:53:42;98895.19;;;13.64;77.52
80116;BME280;69423;47.608;19.366;2023-05-29T01:54:13;98901.41;;;13.65;77.43
80116;BME280;69423;47.608;19.366;2023-05-29T01:54:44;98894.81;;;13.67;78.06
80116;BME280;69423;47.608;19.366;2023-05-29T01:55:15;98902.03;;;13.67;76.85
80116;BME280;69423;47.608;19.366;2023-05-29T01:55:47;98905.53;;;13.67;77.47
80116;BME280;69423;47.608;19.366;2023-05-29T01:56:18;98900.16;;;13.67;76.78
80116;BME280;69423;47.608;19.366;2023-05-29T01:56:49;98894.19;;;13.65;76.60
80116;BME280;69423;47.608;19.366;2023-05-29T01:57:21;98894.38;;;13.64;76.64
80116;BME280;69423;47.608;19.366;2023-05-29T01:57:54;98895.00;;;13.66;77.46
80116;BME280;69423;47.608;19.366;2023-05-29T01:58:26;98907.59;;;13.65;78.75
80116;BME280;69423;47.608;19.366;2023-05-29T01:58:59;98907.59;;;13.65;78.13
80116;BME280;69423;47.608;19.366;2023-05-29T01:59:33;98904.09;;;13.65;77.37
80116;BME280;69423;47.608;19.366;2023-05-29T02:00:05;98897.88;;;13.64;77.29
80116;BME280;69423;47.608;19.366;2023-05-29T02:00:39;98897.69;;;13.66;76.78
80116;BME280;69423;47.608;19.366;2023-05-29T02:01:11;98898.50;;;13.66;76.99
80116;BME280;69423;47.608;19.366;2023-05-29T02:01:41;98898.50;;;13.66;78.75
80116;BME280;69423;47.608;19.366;2023-05-29T02:02:12;98899.34;;;13.67;78.09
80116;BME280;69423;47.608;19.366;2023-05-29T02:02:43;98903.88;;;13.66;77.50
80116;BME280;69423;47.608;19.366;2023-05-29T02:03:14;98899.34;;;13.67;75.78
80116;BME280;69423;47.608;19.366;2023-05-29T02:03:45;98895.63;;;13.68;76.81
80116;BME280;69423;47.608;19.366;2023-05-29T02:04:16;98896.88;;;13.65;77.33
80116;BME280;69423;47.608;19.366;2023-05-29T02:04:46;98900.38;;;13.66;76.38
80116;BME280;69423;47.608;19.366;2023-05-29T02:05:17;98903.66;;;13.68;77.27
80116;BME280;69423;47.608;19.366;2023-05-29T02:05:48;98897.06;;;13.70;76.29
80116;BME280;69423;47.608;19.366;2023-05-29T02:06:19;98891.50;;;13.72;76.69
80116;BME280;69423;47.608;19.366;2023-05-29T02:06:50;98898.53;;;13.73;76.72
80116;BME280;69423;47.608;19.366;2023-05-29T02:07:23;98901.41;;;13.71;76.03
80116;BME280;69423;47.608;19.366;2023-05-29T02:07:54;98900.78;;;13.69;77.48
80116;BME280;69423;47.608;19.366;2023-05-29T02:08:26;98898.31;;;13.68;76.87
80116;BME280;69423;47.608;19.366;2023-05-29T02:08:57;98892.94;;;13.68;76.82
80116;BME280;69423;47.608;19.366;2023-05-29T02:09:28;98889.03;;;13.70;76.72
80116;BME280;69423;47.608;19.366;2023-05-29T02:09:59;98891.94;;;13.69;76.65
80116;BME280;69423;47.608;19.366;2023-05-29T02:10:30;98894.19;;;13.65;77.41
80116;BME280;69423;47.608;19.366;2023-05-29T02:11:02;98886.97;;;13.66;77.67
80116;BME280;69423;47.608;19.366;2023-05-29T02:11:33;98890.47;;;13.66;77.64
80116;BME280;69423;47.608;19.366;2023-05-29T02:12:04;98886.53;;;13.62;77.29
80116;BME280;69423;47.608;19.366;2023-05-29T02:12:35;98883.66;;;13.64;77.08
80116;BME280;69423;47.608;19.366;2023-05-29T02:13:06;98890.06;;;13.63;76.84
80116;BME280;69423;47.608;19.366;2023-05-29T02:13:37;98892.53;;;13.64;77.14
80116;BME280;69423;47.608;19.366;2023-05-29T02:14:08;98893.56;;;13.63;76.99
80116;BME280;69423;47.608;19.366;2023-05-29T02:14:39;98894.59;;;13.62;77.16
80116;BME280;69423;47.608;19.366;2023-05-29T02:15:10;98882.44;;;13.60;77.53
80116;BME280;69423;47.608;19.366;2023-05-29T02:15:41;98895.63;;;13.61;77.42
80116;BME280;69423;47.608;19.366;2023-05-29T02:16:12;98893.75;;;13.62;77.25
80116;BME280;69423;47.608;19.366;2023-05-29T02:16:43;98898.94;;;13.63;77.58
80116;BME280;69423;47.608;19.366;2023-05-29T02:17:17;98885.72;;;13.62;78.04
80116;BME280;69423;47.608;19.366;2023-05-29T02:17:50;98878.50;;;13.62;78.07
80116;BME280;69423;47.608;19.366;2023-05-29T02:18:20;98883.03;;;13.62;77.65
80116;BME280;69423;47.608;19.366;2023-05-29T02:18:51;98884.91;;;13.61;77.35
80116;BME280;69423;47.608;19.366;2023-05-29T02:19:22;98888.59;;;13.60;78.08
80116;BME280;69423;47.608;19.366;2023-05-29T02:19:55;98881.63;;;13.59;77.95
80116;BME280;69423;47.608;19.366;2023-05-29T02:20:26;98886.16;;;13.59;77.82
80116;BME280;69423;47.608;19.366;2023-05-29T02:20:57;98888.84;;;13.59;77.67
80116;BME280;69423;47.608;19.366;2023-05-29T02:21:28;98888.22;;;13.56;77.71
80116;BME280;69423;47.608;19.366;2023-05-29T02:21:59;98883.25;;;13.53;77.48
80116;BME280;69423;47.608;19.366;2023-05-29T02:22:30;98882.63;;;13.51;77.86
80116;BME280;69423;47.608;19.366;2023-05-29T02:23:01;98881.00;;;13.50;78.10
80116;BME280;69423;47.608;19.366;2023-05-29T02:23:31;98880.56;;;13.47;77.97
80116;BME280;69423;47.608;19.366;2023-05-29T02:24:02;98880.13;;;13.43;77.99
80116;BME280;69423;47.608;19.366;2023-05-29T02:24:33;98883.63;;;13.37;77.94
80116;BME280;69423;47.608;19.366;2023-05-29T02:25:04;98885.28;;;13.38;78.55
80116;BME280;69423;47.608;19.366;2023-05-29T02:25:35;98874.56;;;13.38;79.20
80116;BME280;69423;47.608;19.366;2023-05-29T02:26:06;98878.31;;;13.44;78.81
80116;BME280;69423;47.608;19.366;2023-05-29T02:26:38;98874.78;;;13.43;77.88
80116;BME280;69423;47.608;19.366;2023-05-29T02:27:08;98880.34;;;13.42;78.24
80116;BME280;69423;47.608;19.366;2023-05-29T02:27:39;98880.56;;;13.40;79.01
80116;BME280;69423;47.608;19.366;2023-05-29T02:28:10;98875.81;;;13.42;79.21
80116;BME280;69423;47.608;19.366;2023-05-29T02:28:41;98886.72;;;13.41;79.10
80116;BME280;69423;47.608;19.366;2023-05-29T02:29:12;98882.81;;;13.43;78.97
80116;BME280;69423;47.608;19.366;2023-05-29T02:29:43;98887.34;;;13.43;78.59
80116;BME280;69423;47.608;19.366;2023-05-29T02:30:15;98879.50;;;13.41;78.15
80116;BME280;69423;47.608;19.366;2023-05-29T02:30:46;98885.50;;;13.43;78.87
80116;BME280;69423;47.608;19.366;2023-05-29T02:31:17;98886.53;;;13.42;78.77
80116;BME280;69423;47.608;19.366;2023-05-29T02:31:47;98886.72;;;13.41;78.35
80116;BME280;69423;47.608;19.366;2023-05-29T02:32:18;98887.78;;;13.40;78.71
80116;BME280;69423;47.608;19.366;2023-05-29T02:32:49;98886.53;;;13.35;78.58
80116;BME280;69423;47.608;19.366;2023-05-29T02:33:21;98890.00;;;13.29;78.78
80116;BME280;69423;47.608;19.366;2023-05-29T02:33:51;98887.09;;;13.31;78.64
80116;BME280;69423;47.608;19.366;2023-05-29T02:34:22;98884.44;;;13.31;78.97
80116;BME280;69423;47.608;19.366;2023-05-29T02:34:53;98892.22;;;13.26;78.89
80116;BME280;69423;47.608;19.366;2023-05-29T02:35:24;98886.47;;;13.29;78.51
80116;BME280;69423;47.608;19.366;2023-05-29T02:35:55;98891.19;;;13.27;78.82
80116;BME280;69423;47.608;19.366;2023-05-29T02:36:26;98887.50;;;13.28;79.23
80116;BME280;69423;47.608;19.366;2023-05-29T02:36:58;98885.22;;;13.25;78.79
80116;BME280;69423;47.608;19.366;2023-05-29T02:37:29;98885.22;;;13.25;78.80
80116;BME280;69423;47.608;19.366;2023-05-29T02:38:00;98882.53;;;13.25;78.74
80116;BME280;69423;47.608;19.366;2023-05-29T02:38:31;98875.72;;;13.22;78.65
80116;BME280;69423;47.608;19.366;2023-05-29T02:39:02;98878.59;;;13.21;78.63
80116;BME280;69423;47.608;19.366;2023-05-29T02:39:33;98879.44;;;13.21;79.36
80116;BME280;69423;47.608;19.366;2023-05-29T02:40:04;98877.78;;;13.20;78.67
80116;BME280;69423;47.608;19.366;2023-05-29T02:40:40;98876.72;;;13.14;79.59
80116;BME280;69423;47.608;19.366;2023-05-29T02:41:10;98875.09;;;13.13;79.80
80116;BME280;69423;47.608;19.366;2023-05-29T02:41:41;98871.59;;;13.13;79.52
80116;BME280;69423;47.608;19.366;2023-05-29T02:42:12;98883.94;;;13.14;80.24
80116;BME280;69423;47.608;19.366;2023-05-29T02:42:44;98881.25;;;13.14;79.58
80116;BME280;69423;47.608;19.366;2023-05-29T02:43:15;98871.19;;;13.16;79.15
80116;BME280;69423;47.608;19.366;2023-05-29T02:43:46;98883.75;;;13.15;79.13
80116;BME280;69423;47.608;19.366;2023-05-29T02:44:16;98881.25;;;13.14;79.30
80116;BME280;69423;47.608;19.366;2023-05-29T02:44:47;98885.59;;;13.15;79.25
80116;BME280;69423;47.608;19.366;2023-05-29T02:45:18;98878.59;;;13.14;79.21
80116;BME280;69423;47.608;19.366;2023-05-29T02:45:49;98879.81;;;13.11;80.06
80116;BME280;69423;47.608;19.366;2023-05-29T02:46:20;98870.97;;;13.11;79.07
80116;BME280;69423;47.608;19.366;2023-05-29T02:46:52;98874.28;;;13.13;78.98
80116;BME280;69423;47.608;19.366;2023-05-29T02:47:23;98879.19;;;13.09;78.99
80116;BME280;69423;47.608;19.366;2023-05-29T02:47:54;98875.72;;;13.09;78.76
80116;BME280;69423;47.608;19.366;2023-05-29T02:48:24;98872.59;;;13.05;79.96
80116;BME280;69423;47.608;19.366;2023-05-29T02:48:56;98872.59;;;13.05;79.72
80116;BME280;69423;47.608;19.366;2023-05-29T02:49:27;98869.53;;;13.08;79.89
80116;BME280;69423;47.608;19.366;2023-05-29T02:49:58;98876.53;;;13.09;79.51
80116;BME280;69423;47.608;19.366;2023-05-29T02:50:29;98874.03;;;13.08;79.16
80116;BME280;69423;47.608;19.366;2023-05-29T02:50:59;98876.53;;;13.09;79.38
80116;BME280;69423;47.608;19.366;2023-05-29T02:51:30;98878.19;;;13.10;79.62
80116;BME280;69423;47.608;19.366;2023-05-29T02:52:03;98883.94;;;13.07;79.54
80116;BME280;69423;47.608;19.366;2023-05-29T02:52:34;98879.19;;;13.03;79.38
80116;BME280;69423;47.608;19.366;2023-05-29T02:53:07;98873.22;;;13.07;79.37
80116;BME280;69423;47.608;19.366;2023-05-29T02:53:38;98860.88;;;13.06;79.09
80116;BME280;69423;47.608;19.366;2023-05-29T02:54:08;98875.69;;;13.02;79.38
80116;BME280;69423;47.608;19.366;2023-05-29T02:54:39;98874.25;;;13.06;80.14